createdAt,value
2022-12-25T00:00:43.945Z,1018.0000
2022-12-25T00:01:46.272Z,1019.0000
2022-12-25T00:02:48.776Z,1016.0000
2022-12-25T00:03:48.985Z,1012.0000
2022-12-25T00:04:51.140Z,1009.0000
2022-12-25T00:05:53.493Z,1006.0000
2022-12-25T00:06:55.839Z,1001.0000
2022-12-25T00:07:58.206Z,999.0000
2022-12-25T00:08:58.359Z,995.0000
2022-12-25T00:10:00.676Z,992.0000
2022-12-25T00:11:03.016Z,988.0000
2022-12-25T00:12:05.371Z,986.0000
2022-12-25T00:13:07.768Z,981.0000
2022-12-25T00:14:07.939Z,976.0000
2022-12-25T00:15:10.278Z,976.0000
2022-12-25T00:16:12.685Z,974.0000
2022-12-25T00:17:14.965Z,972.0000
2022-12-25T00:18:17.344Z,968.0000
2022-12-25T00:19:17.501Z,968.0000
2022-12-25T00:20:18.721Z,964.0000
2022-12-25T00:21:21.031Z,958.0000
2022-12-25T00:22:21.174Z,949.0000
2022-12-25T00:23:23.554Z,944.0000
2022-12-25T00:24:25.841Z,941.0000
2022-12-25T00:25:26.020Z,937.0000
2022-12-25T00:26:28.414Z,932.0000
2022-12-25T00:27:30.701Z,929.0000
2022-12-25T00:28:33.081Z,925.0000
2022-12-25T00:29:35.375Z,925.0000
2022-12-25T00:30:37.731Z,924.0000
2022-12-25T00:31:40.110Z,922.0000
2022-12-25T00:32:42.451Z,919.0000
2022-12-25T00:33:44.894Z,918.0000
2022-12-25T00:34:45.091Z,917.0000
2022-12-25T00:35:47.423Z,915.0000
2022-12-25T00:36:49.809Z,911.0000
2022-12-25T00:37:50.057Z,910.0000
2022-12-25T00:38:52.490Z,908.0000
2022-12-25T00:39:54.727Z,907.0000
2022-12-25T00:40:54.945Z,906.0000
2022-12-25T00:41:57.237Z,901.0000
2022-12-25T00:42:59.584Z,899.0000
2022-12-25T00:43:59.823Z,897.0000
2022-12-25T00:45:02.143Z,895.0000
2022-12-25T00:46:04.545Z,891.0000
2022-12-25T00:47:06.875Z,886.0000
2022-12-25T00:48:09.169Z,886.0000
2022-12-25T00:49:11.675Z,884.0000
2022-12-25T00:50:11.811Z,883.0000
2022-12-25T00:51:14.167Z,880.0000
2022-12-25T00:52:16.520Z,877.0000
2022-12-25T00:53:16.746Z,874.0000
2022-12-25T00:54:19.179Z,872.0000
2022-12-25T00:55:21.508Z,868.0000
2022-12-25T00:56:21.695Z,864.0000
2022-12-25T00:57:24.038Z,865.0000
2022-12-25T00:58:26.402Z,861.0000
2022-12-25T00:59:28.712Z,859.0000
2022-12-25T01:00:31.014Z,860.0000
2022-12-25T01:01:33.511Z,858.0000
2022-12-25T01:02:35.854Z,859.0000
2022-12-25T01:03:37.976Z,857.0000
2022-12-25T01:04:40.324Z,854.0000
2022-12-25T01:05:40.513Z,854.0000
2022-12-25T01:06:42.802Z,848.0000
2022-12-25T01:07:45.105Z,848.0000
2022-12-25T01:08:47.453Z,846.0000
2022-12-25T01:09:47.700Z,846.0000
2022-12-25T01:10:49.995Z,843.0000
2022-12-25T01:11:52.358Z,838.0000
2022-12-25T01:12:52.565Z,836.0000
2022-12-25T01:13:54.925Z,834.0000
2022-12-25T01:14:57.312Z,836.0000
2022-12-25T01:15:57.572Z,835.0000
2022-12-25T01:16:59.861Z,832.0000
2022-12-25T01:18:07.374Z,830.0000
2022-12-25T01:19:02.343Z,829.0000
2022-12-25T01:20:04.611Z,825.0000
2022-12-25T01:21:06.830Z,825.0000
2022-12-25T01:22:09.096Z,824.0000
2022-12-25T01:23:11.350Z,822.0000
2022-12-25T01:24:13.616Z,823.0000
2022-12-25T01:25:15.957Z,822.0000
2022-12-25T01:26:18.290Z,821.0000
2022-12-25T01:27:20.538Z,813.0000
2022-12-25T01:28:22.853Z,813.0000
2022-12-25T01:29:25.198Z,811.0000
2022-12-25T01:30:27.550Z,807.0000
2022-12-25T01:31:29.904Z,807.0000
2022-12-25T01:32:32.126Z,808.0000
2022-12-25T01:33:32.319Z,806.0000
2022-12-25T01:34:34.698Z,806.0000
2022-12-25T01:35:37.062Z,802.0000
2022-12-25T01:36:37.247Z,803.0000
2022-12-25T01:37:39.608Z,802.0000
2022-12-25T01:38:41.951Z,801.0000
2022-12-25T01:39:42.122Z,799.0000
2022-12-25T01:40:44.563Z,798.0000
2022-12-25T01:41:46.877Z,797.0000
2022-12-25T01:42:47.134Z,793.0000
2022-12-25T01:43:49.517Z,790.0000
2022-12-25T01:44:51.862Z,787.0000
2022-12-25T01:45:52.164Z,786.0000
2022-12-25T01:46:54.441Z,785.0000
2022-12-25T01:47:56.839Z,783.0000
2022-12-25T01:48:57.077Z,782.0000
2022-12-25T01:49:59.475Z,781.0000
2022-12-25T01:51:01.933Z,777.0000
2022-12-25T01:52:02.149Z,777.0000
2022-12-25T01:53:04.573Z,773.0000
2022-12-25T01:54:06.950Z,773.0000
2022-12-25T01:55:09.327Z,772.0000
2022-12-25T01:56:11.733Z,774.0000
2022-12-25T01:57:11.963Z,775.0000
2022-12-25T01:58:14.322Z,775.0000
2022-12-25T01:59:16.725Z,772.0000
2022-12-25T02:00:16.953Z,769.0000
2022-12-25T02:01:19.420Z,766.0000
2022-12-25T02:02:21.874Z,768.0000
2022-12-25T02:03:22.003Z,769.0000
2022-12-25T02:04:24.293Z,771.0000
2022-12-25T02:05:26.708Z,769.0000
2022-12-25T02:06:26.990Z,767.0000
2022-12-25T02:07:29.397Z,765.0000
2022-12-25T02:08:31.785Z,760.0000
2022-12-25T02:09:34.163Z,760.0000
2022-12-25T02:10:36.536Z,759.0000
2022-12-25T02:11:36.829Z,758.0000
2022-12-25T02:12:39.131Z,755.0000
2022-12-25T02:13:41.531Z,754.0000
2022-12-25T02:14:41.769Z,754.0000
2022-12-25T02:15:44.166Z,753.0000
2022-12-25T02:16:57.475Z,755.0000
2022-12-25T02:17:46.715Z,754.0000
2022-12-25T02:18:49.095Z,752.0000
2022-12-25T02:19:51.445Z,751.0000
2022-12-25T02:20:51.637Z,750.0000
2022-12-25T02:21:54.006Z,750.0000
2022-12-25T02:22:56.283Z,749.0000
2022-12-25T02:23:58.649Z,748.0000
2022-12-25T02:25:00.967Z,748.0000
2022-12-25T02:26:03.272Z,746.0000
2022-12-25T02:27:05.680Z,747.0000
2022-12-25T02:28:07.957Z,746.0000
2022-12-25T02:29:10.246Z,743.0000
2022-12-25T02:30:12.573Z,739.0000
2022-12-25T02:31:14.892Z,737.0000
2022-12-25T02:32:17.354Z,738.0000
2022-12-25T02:33:17.434Z,736.0000
2022-12-25T02:34:19.776Z,733.0000
2022-12-25T02:35:22.135Z,732.0000
2022-12-25T02:36:22.371Z,731.0000
2022-12-25T02:37:24.713Z,730.0000
2022-12-25T02:38:27.058Z,727.0000
2022-12-25T02:39:29.412Z,726.0000
2022-12-25T02:40:31.771Z,727.0000
2022-12-25T02:41:34.122Z,727.0000
2022-12-25T02:42:34.473Z,728.0000
2022-12-25T02:43:36.649Z,728.0000
2022-12-25T02:44:38.961Z,727.0000
2022-12-25T02:45:41.316Z,726.0000
2022-12-25T02:46:43.602Z,722.0000
2022-12-25T02:47:45.998Z,721.0000
2022-12-25T02:48:48.352Z,720.0000
2022-12-25T02:49:50.693Z,722.0000
2022-12-25T02:50:53.052Z,720.0000
2022-12-25T02:51:53.205Z,717.0000
2022-12-25T02:52:55.584Z,716.0000
2022-12-25T02:53:57.898Z,712.0000
2022-12-25T02:54:58.136Z,714.0000
2022-12-25T02:56:00.511Z,714.0000
2022-12-25T02:57:02.906Z,713.0000
2022-12-25T02:58:03.149Z,711.0000
2022-12-25T02:59:05.481Z,707.0000
2022-12-25T03:00:07.865Z,705.0000
2022-12-25T03:01:08.180Z,706.0000
2022-12-25T03:02:10.667Z,706.0000
2022-12-25T03:03:13.024Z,706.0000
2022-12-25T03:04:13.177Z,704.0000
2022-12-25T03:05:15.552Z,705.0000
2022-12-25T03:06:17.951Z,705.0000
2022-12-25T03:07:18.198Z,699.0000
2022-12-25T03:08:20.595Z,699.0000
2022-12-25T03:09:23.014Z,696.0000
2022-12-25T03:10:25.296Z,692.0000
2022-12-25T03:11:27.696Z,693.0000
2022-12-25T03:12:27.942Z,691.0000
2022-12-25T03:13:30.378Z,689.0000
2022-12-25T03:14:32.711Z,689.0000
2022-12-25T03:15:32.933Z,688.0000
2022-12-25T03:16:35.329Z,689.0000
2022-12-25T03:17:37.676Z,686.0000
2022-12-25T03:18:37.942Z,689.0000
2022-12-25T03:19:40.290Z,685.0000
2022-12-25T03:20:42.623Z,686.0000
2022-12-25T03:21:42.836Z,687.0000
2022-12-25T03:22:45.186Z,686.0000
2022-12-25T03:23:47.595Z,688.0000
2022-12-25T03:24:47.783Z,687.0000
2022-12-25T03:25:50.125Z,688.0000
2022-12-25T03:26:52.578Z,688.0000
2022-12-25T03:27:52.856Z,689.0000
2022-12-25T03:28:55.434Z,687.0000
2022-12-25T03:29:57.682Z,689.0000
2022-12-25T03:31:00.239Z,688.0000
2022-12-25T03:32:02.437Z,688.0000
2022-12-25T03:33:13.596Z,683.0000
2022-12-25T03:34:05.049Z,683.0000
2022-12-25T03:35:07.441Z,681.0000
2022-12-25T03:36:07.694Z,682.0000
2022-12-25T03:37:10.091Z,679.0000
2022-12-25T03:38:12.485Z,682.0000
2022-12-25T03:39:12.738Z,682.0000
2022-12-25T03:40:15.139Z,682.0000
2022-12-25T03:41:17.460Z,676.0000
2022-12-25T03:42:17.652Z,674.0000
2022-12-25T03:43:20.048Z,676.0000
2022-12-25T03:44:22.474Z,679.0000
2022-12-25T03:45:22.679Z,676.0000
2022-12-25T03:46:25.196Z,674.0000
2022-12-25T03:47:27.483Z,675.0000
2022-12-25T03:48:29.907Z,672.0000
2022-12-25T03:49:32.338Z,670.0000
2022-12-25T03:50:32.576Z,671.0000
2022-12-25T03:51:35.019Z,669.0000
2022-12-25T03:52:37.447Z,670.0000
2022-12-25T03:53:39.892Z,670.0000
2022-12-25T03:54:42.378Z,669.0000
2022-12-25T03:55:42.634Z,669.0000
2022-12-25T03:56:45.092Z,668.0000
2022-12-25T03:57:45.416Z,667.0000
2022-12-25T03:58:47.859Z,664.0000
2022-12-25T03:59:50.358Z,664.0000
2022-12-25T04:00:52.759Z,663.0000
2022-12-25T04:01:55.472Z,663.0000
2022-12-25T04:02:55.742Z,662.0000
2022-12-25T04:03:58.036Z,663.0000
2022-12-25T04:04:58.400Z,658.0000
2022-12-25T04:06:00.841Z,655.0000
2022-12-25T04:07:03.281Z,659.0000
2022-12-25T04:08:05.766Z,658.0000
2022-12-25T04:09:08.219Z,658.0000
2022-12-25T04:10:10.707Z,654.0000
2022-12-25T04:11:13.086Z,655.0000
2022-12-25T04:12:13.396Z,654.0000
2022-12-25T04:13:15.834Z,656.0000
2022-12-25T04:14:18.229Z,654.0000
2022-12-25T04:15:20.845Z,652.0000
2022-12-25T04:16:23.197Z,649.0000
2022-12-25T04:17:23.366Z,650.0000
2022-12-25T04:18:25.824Z,651.0000
2022-12-25T04:19:26.150Z,650.0000
2022-12-25T04:20:28.632Z,648.0000
2022-12-25T04:21:30.981Z,647.0000
2022-12-25T04:22:31.239Z,649.0000
2022-12-25T04:23:33.633Z,652.0000
2022-12-25T04:24:35.964Z,652.0000
2022-12-25T04:25:36.194Z,650.0000
2022-12-25T04:26:38.572Z,649.0000
2022-12-25T04:27:40.974Z,647.0000
2022-12-25T04:28:43.393Z,648.0000
2022-12-25T04:29:45.754Z,649.0000
2022-12-25T04:30:46.120Z,650.0000
2022-12-25T04:31:48.380Z,652.0000
2022-12-25T04:32:50.773Z,652.0000
2022-12-25T04:33:50.994Z,651.0000
2022-12-25T04:34:53.371Z,649.0000
2022-12-25T04:35:55.755Z,650.0000
2022-12-25T04:36:55.918Z,649.0000
2022-12-25T04:37:58.270Z,648.0000
2022-12-25T04:39:00.633Z,646.0000
2022-12-25T04:40:00.828Z,646.0000
2022-12-25T04:41:03.194Z,645.0000
2022-12-25T04:42:05.483Z,645.0000
2022-12-25T04:43:07.872Z,644.0000
2022-12-25T04:44:10.246Z,646.0000
2022-12-25T04:45:12.580Z,646.0000
2022-12-25T04:46:13.003Z,644.0000
2022-12-25T04:47:15.203Z,647.0000
2022-12-25T04:48:17.573Z,645.0000
2022-12-25T04:49:17.809Z,648.0000
2022-12-25T04:50:20.275Z,648.0000
2022-12-25T04:51:22.563Z,646.0000
2022-12-25T04:52:22.797Z,646.0000
2022-12-25T04:53:25.163Z,643.0000
2022-12-25T04:54:27.533Z,644.0000
2022-12-25T04:55:27.748Z,642.0000
2022-12-25T04:56:30.253Z,642.0000
2022-12-25T04:57:32.528Z,641.0000
2022-12-25T04:58:32.775Z,642.0000
2022-12-25T04:59:35.185Z,640.0000
2022-12-25T05:00:37.564Z,640.0000
2022-12-25T05:01:40.132Z,640.0000
2022-12-25T05:02:42.466Z,637.0000
2022-12-25T05:03:42.664Z,636.0000
2022-12-25T05:04:44.883Z,636.0000
2022-12-25T05:05:47.220Z,636.0000
2022-12-25T05:06:47.477Z,635.0000
2022-12-25T05:07:49.839Z,634.0000
2022-12-25T05:08:52.226Z,635.0000
2022-12-25T05:09:52.450Z,633.0000
2022-12-25T05:10:54.827Z,631.0000
2022-12-25T05:11:57.348Z,629.0000
2022-12-25T05:12:57.359Z,629.0000
2022-12-25T05:13:59.816Z,628.0000
2022-12-25T05:15:02.225Z,629.0000
2022-12-25T05:16:02.593Z,626.0000
2022-12-25T05:17:05.066Z,631.0000
2022-12-25T05:18:07.435Z,632.0000
2022-12-25T05:19:09.845Z,631.0000
2022-12-25T05:20:12.268Z,628.0000
2022-12-25T05:21:12.504Z,628.0000
2022-12-25T05:22:14.974Z,626.0000
2022-12-25T05:23:17.337Z,626.0000
2022-12-25T05:24:19.717Z,621.0000
2022-12-25T05:25:22.065Z,621.0000
2022-12-25T05:26:22.313Z,621.0000
2022-12-25T05:27:24.734Z,616.0000
2022-12-25T05:28:27.062Z,618.0000
2022-12-25T05:29:27.312Z,622.0000
2022-12-25T05:30:29.714Z,622.0000
2022-12-25T05:31:32.243Z,620.0000
2022-12-25T05:32:34.627Z,616.0000
2022-12-25T05:33:36.993Z,617.0000
2022-12-25T05:34:37.201Z,618.0000
2022-12-25T05:35:39.543Z,616.0000
2022-12-25T05:36:41.982Z,618.0000
2022-12-25T05:37:42.215Z,618.0000
2022-12-25T05:38:44.546Z,620.0000
2022-12-25T05:39:46.913Z,621.0000
2022-12-25T05:40:47.148Z,621.0000
2022-12-25T05:41:49.522Z,617.0000
2022-12-25T05:42:51.936Z,616.0000
2022-12-25T05:43:52.098Z,613.0000
2022-12-25T05:44:54.438Z,616.0000
2022-12-25T05:45:56.811Z,617.0000
2022-12-25T05:46:57.094Z,616.0000
2022-12-25T05:47:59.540Z,618.0000
2022-12-25T05:49:01.782Z,621.0000
2022-12-25T05:50:02.006Z,620.0000
2022-12-25T05:51:04.387Z,619.0000
2022-12-25T05:52:06.752Z,619.0000
2022-12-25T05:53:08.559Z,618.0000
2022-12-25T05:54:09.352Z,615.0000
2022-12-25T05:55:11.735Z,613.0000
2022-12-25T05:56:11.938Z,612.0000
2022-12-25T05:57:14.322Z,612.0000
2022-12-25T05:58:16.786Z,613.0000
2022-12-25T05:59:16.886Z,613.0000
2022-12-25T06:00:19.196Z,613.0000
2022-12-25T06:01:21.628Z,614.0000
2022-12-25T06:02:21.880Z,612.0000
2022-12-25T06:03:24.372Z,612.0000
2022-12-25T06:04:26.566Z,609.0000
2022-12-25T06:05:26.809Z,608.0000
2022-12-25T06:06:29.119Z,609.0000
2022-12-25T06:07:31.497Z,609.0000
2022-12-25T06:08:31.743Z,607.0000
2022-12-25T06:09:34.090Z,607.0000
2022-12-25T06:10:36.458Z,608.0000
2022-12-25T06:11:36.675Z,608.0000
2022-12-25T06:12:39.046Z,609.0000
2022-12-25T06:13:41.407Z,608.0000
2022-12-25T06:14:41.591Z,610.0000
2022-12-25T06:15:43.978Z,603.0000
2022-12-25T06:16:46.409Z,600.0000
2022-12-25T06:17:48.643Z,601.0000
2022-12-25T06:18:51.059Z,606.0000
2022-12-25T06:19:52.281Z,603.0000
2022-12-25T06:20:53.589Z,602.0000
2022-12-25T06:21:55.992Z,603.0000
2022-12-25T06:22:58.406Z,602.0000
2022-12-25T06:23:58.790Z,603.0000
2022-12-25T06:25:01.136Z,607.0000
2022-12-25T06:26:03.525Z,614.0000
2022-12-25T06:27:05.914Z,618.0000
2022-12-25T06:28:08.352Z,625.0000
2022-12-25T06:29:08.626Z,628.0000
2022-12-25T06:30:10.959Z,628.0000
2022-12-25T06:31:13.341Z,633.0000
2022-12-25T06:32:13.459Z,634.0000
2022-12-25T06:33:15.817Z,635.0000
2022-12-25T06:34:18.222Z,640.0000
2022-12-25T06:35:18.372Z,642.0000
2022-12-25T06:36:20.765Z,642.0000
2022-12-25T06:37:23.086Z,646.0000
2022-12-25T06:38:23.286Z,649.0000
2022-12-25T06:39:25.782Z,652.0000
2022-12-25T06:40:28.045Z,653.0000
2022-12-25T06:41:28.264Z,656.0000
2022-12-25T06:42:30.656Z,658.0000
2022-12-25T06:44:31.163Z,661.0000
2022-12-25T06:45:31.426Z,660.0000
2022-12-25T06:46:33.539Z,661.0000
2022-12-25T06:47:35.842Z,662.0000
2022-12-25T06:48:38.158Z,663.0000
2022-12-25T06:49:40.531Z,664.0000
2022-12-25T06:50:42.799Z,663.0000
2022-12-25T06:51:42.957Z,666.0000
2022-12-25T06:52:45.286Z,667.0000
2022-12-25T06:53:47.585Z,669.0000
2022-12-25T06:54:49.956Z,668.0000
2022-12-25T06:55:52.269Z,667.0000
2022-12-25T06:56:52.467Z,672.0000
2022-12-25T06:57:54.833Z,673.0000
2022-12-25T06:58:57.228Z,675.0000
2022-12-25T06:59:59.571Z,677.0000
2022-12-25T07:01:01.954Z,675.0000
2022-12-25T07:02:02.296Z,677.0000
2022-12-25T07:03:04.601Z,680.0000
2022-12-25T07:04:06.910Z,682.0000
2022-12-25T07:05:09.397Z,684.0000
2022-12-25T07:06:09.596Z,688.0000
2022-12-25T07:08:03.660Z,695.0000
2022-12-25T07:09:05.895Z,695.0000
2022-12-25T07:10:08.139Z,689.0000
2022-12-25T07:11:10.464Z,687.0000
2022-12-25T07:12:10.535Z,687.0000
2022-12-25T07:13:12.882Z,687.0000
2022-12-25T07:14:18.787Z,685.0000
2022-12-25T07:15:17.586Z,683.0000
2022-12-25T07:16:17.823Z,683.0000
2022-12-25T07:17:20.008Z,682.0000
2022-12-25T07:18:22.333Z,682.0000
2022-12-25T07:19:24.655Z,680.0000
2022-12-25T07:20:26.996Z,679.0000
2022-12-25T07:21:30.257Z,679.0000
2022-12-25T07:22:29.569Z,679.0000
2022-12-25T07:23:31.913Z,682.0000
2022-12-25T07:24:34.256Z,680.0000
2022-12-25T07:25:37.550Z,676.0000
2022-12-25T07:26:39.029Z,679.0000
2022-12-25T07:27:41.301Z,683.0000
2022-12-25T07:28:41.546Z,685.0000
2022-12-25T07:29:43.928Z,677.0000
2022-12-25T07:30:46.294Z,652.0000
2022-12-25T07:31:48.729Z,663.0000
2022-12-25T07:32:50.335Z,672.0000
2022-12-25T07:33:51.213Z,679.0000
2022-12-25T07:34:53.585Z,682.0000
2022-12-25T07:35:56.013Z,684.0000
2022-12-25T07:36:58.382Z,687.0000
2022-12-25T07:37:58.603Z,693.0000
2022-12-25T07:39:01.069Z,697.0000
2022-12-25T07:40:03.413Z,701.0000
2022-12-25T07:41:05.789Z,703.0000
2022-12-25T07:42:06.095Z,709.0000
2022-12-25T07:43:08.417Z,712.0000
2022-12-25T07:44:10.746Z,718.0000
2022-12-25T07:45:13.127Z,721.0000
2022-12-25T07:46:15.639Z,726.0000
2022-12-25T07:47:17.977Z,726.0000
2022-12-25T07:48:20.280Z,727.0000
2022-12-25T07:49:20.548Z,730.0000
2022-12-25T07:50:22.959Z,738.0000
2022-12-25T07:51:25.375Z,740.0000
2022-12-25T07:52:27.856Z,744.0000
2022-12-25T07:53:30.129Z,745.0000
2022-12-25T07:54:30.381Z,747.0000
2022-12-25T07:55:32.773Z,751.0000
2022-12-25T07:56:35.183Z,758.0000
2022-12-25T07:57:37.683Z,759.0000
2022-12-25T07:58:37.823Z,763.0000
2022-12-25T07:59:40.177Z,764.0000
2022-12-25T08:00:42.602Z,766.0000
2022-12-25T08:01:45.080Z,770.0000
2022-12-25T08:02:45.542Z,777.0000
2022-12-25T08:03:47.755Z,782.0000
2022-12-25T08:04:49.987Z,788.0000
2022-12-25T08:05:52.394Z,795.0000
2022-12-25T08:06:52.682Z,798.0000
2022-12-25T08:07:57.774Z,805.0000
2022-12-25T08:08:57.472Z,806.0000
2022-12-25T08:09:59.881Z,817.0000
2022-12-25T08:11:00.126Z,824.0000
2022-12-25T08:12:02.500Z,806.0000
2022-12-25T08:13:10.850Z,804.0000
2022-12-25T08:14:07.239Z,807.0000
2022-12-25T08:15:07.418Z,812.0000
2022-12-25T08:16:09.799Z,818.0000
2022-12-25T08:17:12.276Z,821.0000
2022-12-25T08:18:14.650Z,824.0000
2022-12-25T08:19:14.897Z,825.0000
2022-12-25T08:20:17.291Z,829.0000
2022-12-25T08:21:19.715Z,833.0000
2022-12-25T08:22:22.182Z,840.0000
2022-12-25T08:23:24.567Z,833.0000
2022-12-25T08:24:26.909Z,824.0000
2022-12-25T08:25:29.324Z,833.0000
2022-12-25T08:26:29.542Z,841.0000
2022-12-25T08:27:31.958Z,846.0000
2022-12-25T08:28:34.451Z,845.0000
2022-12-25T08:29:36.754Z,856.0000
2022-12-25T08:30:37.015Z,869.0000
2022-12-25T08:31:45.773Z,872.0000
2022-12-25T08:32:41.788Z,875.0000
2022-12-25T08:33:44.255Z,880.0000
2022-12-25T08:34:44.441Z,886.0000
2022-12-25T08:35:46.839Z,897.0000
2022-12-25T08:36:49.233Z,917.0000
2022-12-25T08:37:51.667Z,937.0000
2022-12-25T08:38:54.578Z,961.0000
2022-12-25T08:39:54.270Z,980.0000
2022-12-25T08:40:56.644Z,1013.0000
2022-12-25T08:41:59.062Z,1025.0000
2022-12-25T08:42:59.287Z,1066.0000
2022-12-25T08:44:01.759Z,1067.0000
2022-12-25T08:45:04.080Z,1062.0000
2022-12-25T08:46:06.569Z,1081.0000
2022-12-25T08:47:06.715Z,1082.0000
2022-12-25T08:48:09.112Z,1097.0000
2022-12-25T08:49:11.563Z,1105.0000
2022-12-25T08:50:13.908Z,1105.0000
2022-12-25T08:51:14.149Z,1115.0000
2022-12-25T08:52:16.526Z,1126.0000
2022-12-25T08:53:18.939Z,1131.0000
2022-12-25T08:54:21.368Z,1156.0000
2022-12-25T08:55:21.594Z,1160.0000
2022-12-25T08:56:23.974Z,1201.0000
2022-12-25T08:57:26.372Z,1208.0000
2022-12-25T08:58:28.784Z,1211.0000
2022-12-25T08:59:31.191Z,1226.0000
2022-12-25T09:00:31.380Z,1243.0000
2022-12-25T09:01:34.239Z,1240.0000
2022-12-25T09:02:36.283Z,1240.0000
2022-12-25T09:03:36.376Z,1276.0000
2022-12-25T09:04:38.680Z,1287.0000
2022-12-25T09:05:40.982Z,1285.0000
2022-12-25T09:06:43.338Z,1291.0000
2022-12-25T09:07:45.662Z,1292.0000
2022-12-25T09:08:49.101Z,1289.0000
2022-12-25T09:09:48.287Z,1302.0000
2022-12-25T09:10:50.623Z,1309.0000
2022-12-25T09:11:53.027Z,1314.0000
2022-12-25T09:12:55.396Z,1332.0000
2022-12-25T09:13:55.568Z,1353.0000
2022-12-25T09:14:58.301Z,1358.0000
2022-12-25T09:16:00.395Z,1358.0000
2022-12-25T09:17:02.632Z,1372.0000
2022-12-25T09:18:05.019Z,1373.0000
2022-12-25T09:19:05.176Z,1369.0000
2022-12-25T09:20:07.541Z,1402.0000
2022-12-25T09:21:09.891Z,1409.0000
2022-12-25T09:22:12.249Z,1399.0000
2022-12-25T09:23:14.647Z,1374.0000
2022-12-25T09:24:14.827Z,1388.0000
2022-12-25T09:25:17.192Z,1401.0000
2022-12-25T09:26:19.460Z,1405.0000
2022-12-25T09:28:34.937Z,1365.0000
2022-12-25T09:29:36.043Z,1405.0000
2022-12-25T09:30:39.775Z,1403.0000
2022-12-25T09:31:41.711Z,1402.0000
2022-12-25T09:32:44.044Z,1422.0000
2022-12-25T09:33:46.356Z,1352.0000
2022-12-25T09:34:46.562Z,1381.0000
2022-12-25T09:35:48.945Z,1375.0000
2022-12-25T09:36:51.236Z,1389.0000
2022-12-25T09:37:53.576Z,1425.0000
2022-12-25T09:38:55.876Z,1426.0000
2022-12-25T09:39:58.261Z,1454.0000
2022-12-25T09:40:58.409Z,1470.0000
2022-12-25T09:42:00.728Z,1487.0000
2022-12-25T09:43:03.064Z,1485.0000
2022-12-25T09:44:05.381Z,1476.0000
2022-12-25T09:45:07.669Z,1485.0000
2022-12-25T09:46:10.069Z,1513.0000
2022-12-25T09:47:10.190Z,1513.0000
2022-12-25T09:48:12.536Z,1494.0000
2022-12-25T09:49:14.866Z,1505.0000
2022-12-25T09:50:17.175Z,1503.0000
2022-12-25T09:51:19.549Z,1520.0000
2022-12-25T09:52:19.712Z,1541.0000
2022-12-25T09:53:22.072Z,1558.0000
2022-12-25T09:54:24.404Z,1563.0000
2022-12-25T09:55:26.765Z,1570.0000
2022-12-25T09:56:27.086Z,1574.0000
2022-12-25T09:57:29.274Z,1583.0000
2022-12-25T09:58:31.615Z,1592.0000
2022-12-25T09:59:33.934Z,1600.0000
2022-12-25T10:00:36.220Z,1605.0000
2022-12-25T10:01:38.669Z,1615.0000
2022-12-25T10:02:38.989Z,1618.0000
2022-12-25T10:03:41.067Z,1628.0000
2022-12-25T10:04:43.316Z,1637.0000
2022-12-25T10:05:45.633Z,1650.0000
2022-12-25T10:06:47.981Z,1654.0000
2022-12-25T10:07:48.201Z,1659.0000
2022-12-25T10:08:50.379Z,1453.0000
2022-12-25T10:09:52.691Z,1354.0000
2022-12-25T10:10:54.998Z,1058.0000
2022-12-25T10:11:57.347Z,759.0000
2022-12-25T10:12:59.628Z,747.0000
2022-12-25T10:14:01.980Z,859.0000
2022-12-25T10:15:02.183Z,1106.0000
2022-12-25T10:16:04.579Z,1269.0000
2022-12-25T10:17:06.909Z,1327.0000
2022-12-25T10:18:09.220Z,1342.0000
2022-12-25T10:19:11.528Z,1360.0000
2022-12-25T10:20:11.737Z,1369.0000
2022-12-25T10:21:14.082Z,1185.0000
2022-12-25T10:22:16.478Z,1205.0000
2022-12-25T10:23:18.819Z,1047.0000
2022-12-25T10:24:21.176Z,1001.0000
2022-12-25T10:25:21.385Z,1040.0000
2022-12-25T10:26:23.792Z,1215.0000
2022-12-25T10:27:26.120Z,1208.0000
2022-12-25T10:28:28.423Z,1270.0000
2022-12-25T10:29:30.744Z,1284.0000
2022-12-25T10:30:30.953Z,1281.0000
2022-12-25T10:31:33.374Z,1279.0000
2022-12-25T10:32:35.705Z,1279.0000
2022-12-25T10:33:38.033Z,1281.0000
2022-12-25T10:34:38.239Z,1283.0000
2022-12-25T10:35:40.604Z,1282.0000
2022-12-25T10:36:42.916Z,1277.0000
2022-12-25T10:37:45.296Z,1266.0000
2022-12-25T10:38:47.618Z,1263.0000
2022-12-25T10:39:49.981Z,1255.0000
2022-12-25T10:40:50.198Z,989.0000
2022-12-25T10:41:52.542Z,864.0000
2022-12-25T10:42:54.980Z,830.0000
2022-12-25T10:43:55.112Z,767.0000
2022-12-25T10:44:57.404Z,777.0000
2022-12-25T10:45:59.836Z,774.0000
2022-12-25T10:47:02.158Z,749.0000
2022-12-25T10:48:07.390Z,904.0000
2022-12-25T10:49:04.763Z,894.0000
2022-12-25T10:50:07.111Z,991.0000
2022-12-25T10:51:09.494Z,1027.0000
2022-12-25T10:52:11.866Z,1056.0000
2022-12-25T10:53:12.118Z,1058.0000
2022-12-25T10:54:14.511Z,1050.0000
2022-12-25T10:55:16.927Z,1053.0000
2022-12-25T10:56:19.341Z,1066.0000
2022-12-25T10:57:19.619Z,1067.0000
2022-12-25T10:58:22.129Z,1067.0000
2022-12-25T10:59:24.425Z,1065.0000
2022-12-25T11:01:18.571Z,1063.0000
2022-12-25T11:02:20.950Z,1061.0000
2022-12-25T11:03:23.236Z,1061.0000
2022-12-25T11:04:25.467Z,1059.0000
2022-12-25T11:05:25.591Z,1059.0000
2022-12-25T11:06:27.996Z,1060.0000
2022-12-25T11:07:30.279Z,1057.0000
2022-12-25T11:08:32.636Z,1057.0000
2022-12-25T11:09:35.007Z,1057.0000
2022-12-25T11:10:35.201Z,1060.0000
2022-12-25T11:11:37.551Z,1059.0000
2022-12-25T11:12:39.916Z,1062.0000
2022-12-25T11:13:42.246Z,1059.0000
2022-12-25T11:14:44.630Z,1056.0000
2022-12-25T11:15:44.947Z,1058.0000
2022-12-25T11:16:47.208Z,1059.0000
2022-12-25T11:17:49.490Z,1060.0000
2022-12-25T11:18:51.789Z,1059.0000
2022-12-25T11:19:54.250Z,1062.0000
2022-12-25T11:20:56.460Z,1065.0000
2022-12-25T11:21:56.681Z,1067.0000
2022-12-25T11:22:59.020Z,1067.0000
2022-12-25T11:24:01.375Z,1067.0000
2022-12-25T11:25:03.773Z,1067.0000
2022-12-25T11:26:03.927Z,1067.0000
2022-12-25T11:27:06.243Z,1067.0000
2022-12-25T11:28:08.595Z,1073.0000
2022-12-25T11:29:10.929Z,1077.0000
2022-12-25T11:30:16.148Z,1079.0000
2022-12-25T11:31:15.686Z,1079.0000
2022-12-25T11:32:15.788Z,1076.0000
2022-12-25T11:33:18.094Z,1077.0000
2022-12-25T11:34:20.488Z,1078.0000
2022-12-25T11:35:22.972Z,1075.0000
2022-12-25T11:36:25.253Z,999.0000
2022-12-25T11:37:27.598Z,944.0000
2022-12-25T11:38:29.969Z,911.0000
2022-12-25T11:39:32.323Z,933.0000
2022-12-25T11:40:32.590Z,978.0000
2022-12-25T11:41:34.898Z,995.0000
2022-12-25T11:42:37.247Z,1000.0000
2022-12-25T11:43:39.636Z,1000.0000
2022-12-25T11:44:41.984Z,992.0000
2022-12-25T11:45:42.196Z,1002.0000
2022-12-25T11:46:44.564Z,1000.0000
2022-12-25T11:47:46.894Z,999.0000
2022-12-25T11:48:49.228Z,998.0000
2022-12-25T11:49:53.952Z,1001.0000
2022-12-25T11:50:51.749Z,999.0000
2022-12-25T11:51:54.043Z,1002.0000
2022-12-25T11:52:56.367Z,1004.0000
2022-12-25T11:53:58.671Z,959.0000
2022-12-25T11:55:00.968Z,953.0000
2022-12-25T11:56:03.208Z,946.0000
2022-12-25T11:57:05.474Z,846.0000
2022-12-25T11:58:05.629Z,873.0000
2022-12-25T11:59:07.981Z,885.0000
2022-12-25T12:00:10.374Z,864.0000
2022-12-25T12:01:12.756Z,775.0000
2022-12-25T12:02:15.170Z,770.0000
2022-12-25T12:03:17.538Z,796.0000
2022-12-25T12:04:17.489Z,830.0000
2022-12-25T12:05:19.848Z,839.0000